M I D A S
Marine Information and Data Acquisition System
Tripno 1250 of the Zeeleeuw from 2007-04-23 07:07:39 to 2007-04-23 14:47:49
Back to CruiseResearch ActivitiesStationsMapUnderway DataData graphs

EquipmentUnitsComment
TimeDGPSUTC
LatitudeDGPSDM.mWGS84
LongitudeDGPSDM.mWGS84
TemperatureSBE03/SBE38deg celciusITS90
ConductivitySBE21S/mITS90
SalinitySBE21 Practical Salinity Units
ChlorophylAChelsea fluorimeterg/lCalibrated in Aceton
Missing or incorrect values are displayed as -999
Sea surface data collected by the RV Zeeleeuw from 2007-04-23 06:44:59 to 2007-04-23 15:01:30
Time Latitude Longitude Temperature Conductivity Salinity ChlorophylA
2007-04-23 06:46:04 51°13.606 2°56.075 13.1455 3.345152 26.512832 -2.871232
2007-04-23 06:47:04 51°13.593 2°56.097 13.0918 3.354366 26.593035 -2.871232
2007-04-23 06:48:04 51°13.569 2°56.123 13.0818 3.36534 26.726172 -2.871232
2007-04-23 06:49:04 51°13.531 2°56.185 13.1628 3.348465 26.572302 -2.871232
2007-04-23 06:50:04 51°13.544 2°56.277 13.3656 3.262131 25.728365 -2.871232
2007-04-23 06:51:04 51°13.539 2°56.28 13.4157 3.110208 24.276478 -2.871232
2007-04-23 06:52:04 51°13.54 2°56.285 13.3381 3.162775 24.767085 -2.871232
2007-04-23 06:53:04 51°13.544 2°56.287 13.2018 3.223214 25.345067 -2.871232
2007-04-23 06:54:04 51°13.533 2°56.295 13.1034 3.283144 25.931591 -2.871232
2007-04-23 06:55:04 51°13.549 2°56.234 13.1261 3.327036 26.366939 -2.871232
2007-04-23 06:56:04 51°13.561 2°56.124 13.2764 3.293599 26.058161 -2.871232
2007-04-23 06:57:04 51°13.596 2°56.021 13.2376 3.212347 25.260647 -2.871232
2007-04-23 06:58:04 51°13.645 2°55.914 13.1254 3.257474 25.697934 -2.871232
2007-04-23 06:59:04 51°13.703 2°55.795 13.111 3.297844 26.113592 -2.871232
2007-04-23 07:00:04 51°13.778 2°55.684 13.104 3.275382 25.923638 -2.871232
2007-04-23 07:01:04 51°13.877 2°55.606 13.0306 3.277245 25.953895 -2.871232
2007-04-23 07:02:04 51°13.994 2°55.522 13.0388 3.353228 26.668391 -2.871232
2007-04-23 07:03:04 51°14.118 2°55.431 13.0597 3.314304 26.315596 -2.871232
2007-04-23 07:04:04 51°14.245 2°55.282 13.0311 3.307782 26.256478 -2.871232
2007-04-23 07:05:03 51°14.379 2°55.026 12.9468 3.33449 26.497944 -2.871232
2007-04-23 07:06:04 51°14.56 2°54.81 12.7696 3.45387 27.650113 -2.871232
2007-04-23 07:07:04 51°14.751 2°54.628 12.7139 3.542002 28.5469 -2.871232
2007-04-23 07:08:04 51°14.94 2°54.446 12.647 3.5998 29.117912 -2.871232
2007-04-23 07:09:04 51°15.127 2°54.264 12.6067 3.623211 29.363691 -2.871232
2007-04-23 07:10:04 51°15.316 2°54.078 12.6226 3.628081 29.431252 -2.871232
2007-04-23 07:11:04 51°15.502 2°53.894 12.7134 3.633778 29.467877 -2.871232
2007-04-23 07:12:04 51°15.694 2°53.722 12.7018 3.631083 29.374594 -2.871232
2007-04-23 07:13:04 51°15.888 2°53.552 12.7181 3.631187 29.393622 -2.871232
2007-04-23 07:14:04 51°16.088 2°53.399 12.5886 3.632948 29.40527 -2.871232
2007-04-23 07:15:04 51°16.292 2°53.256 12.5452 3.629428 29.477692 -2.871232
2007-04-23 07:16:04 51°16.495 2°53.112 12.4955 3.629428 29.51068 -2.871232
2007-04-23 07:17:04 51°16.695 2°52.953 12.4769 3.628704 29.528743 -2.871232
2007-04-23 07:18:04 51°16.896 2°52.797 12.4549 3.629015 29.551272 -2.871232
2007-04-23 07:19:04 51°17.097 2°52.638 12.3529 3.641964 29.711622 -2.871232
2007-04-23 07:20:04 51°17.294 2°52.477 12.2346 3.649839 29.868605 -2.871232
2007-04-23 07:21:04 51°17.481 2°52.288 12.1777 3.649737 29.943734 -2.871232
2007-04-23 07:22:04 51°17.667 2°52.095 12.0741 3.648287 29.986727 -2.871232
2007-04-23 07:23:05 51°17.854 2°51.897 11.984 3.642384 30.023195 -2.871232
2007-04-23 07:24:04 51°18.022 2°51.678 11.9419 3.632647 29.996376 -2.871232
2007-04-23 07:25:04 51°18.191 2°51.447 11.9212 3.626328 29.968176 -2.871232
2007-04-23 07:26:04 51°18.329 2°51.261 11.8846 3.625603 29.981139 -2.871232
2007-04-23 07:27:04 51°18.42 2°51.13 11.8662 3.622185 29.973008 -2.871232
2007-04-23 07:28:04 51°18.468 2°51.024 11.8829 3.619803 29.963478 -2.871232
2007-04-23 07:29:04 51°18.495 2°50.98 11.8679 3.621771 29.973565 -2.871232
2007-04-23 07:30:04 51°18.505 2°50.98 11.8405 3.621667 29.987901 -2.871232
2007-04-23 07:31:05 51°18.516 2°50.981 11.8142 3.619492 29.994126 -2.871232
2007-04-23 07:32:04 51°18.528 2°50.983 11.8097 3.617628 29.995927 -2.871232
2007-04-23 07:33:04 51°18.539 2°50.987 11.8029 3.617524 29.994244 -2.871232
2007-04-23 07:34:04 51°18.549 2°50.991 11.7908 3.61711 30.000646 -2.871232
2007-04-23 07:35:04 51°18.56 2°50.996 11.8011 3.616489 30.001492 -2.871232
2007-04-23 07:36:04 51°18.585 2°50.997 11.8154 3.61711 29.998456 -2.871232
2007-04-23 07:37:04 51°18.677 2°51.112 11.8431 3.614831 29.957785 -2.871232
2007-04-23 07:38:04 51°18.724 2°51.397 11.8419 3.618871 29.982574 -2.871232
2007-04-23 07:39:05 51°18.795 2°51.698 11.897 3.616177 29.951971 -2.871232
2007-04-23 07:40:04 51°18.87 2°52.02 11.9242 3.617005 29.920332 -2.871232
2007-04-23 07:41:05 51°18.947 2°52.359 11.9349 3.613587 29.862845 -2.871232
2007-04-23 07:42:04 51°19.021 2°52.688 11.9474 3.610168 29.826416 -2.871232
2007-04-23 07:43:04 51°19.096 2°53.022 11.9712 3.617626 29.876743 -2.871232
2007-04-23 07:44:04 51°19.171 2°53.356 11.9659 3.619594 29.878871 -2.871232
2007-04-23 07:45:04 51°19.246 2°53.691 11.9892 3.616797 29.85468 -2.871232
2007-04-23 07:46:04 51°19.321 2°54.027 12.0121 3.619698 29.867528 -2.871232
2007-04-23 07:47:04 51°19.396 2°54.36 12.0874 3.620526 29.834693 -2.871232
2007-04-23 07:48:04 51°19.47 2°54.693 12.1329 3.62674 29.846862 -2.871232
2007-04-23 07:49:04 51°19.545 2°55.024 12.1933 3.623736 29.787789 -2.871232
2007-04-23 07:50:05 51°19.623 2°55.36 12.2749 3.628396 29.754347 -2.871232
2007-04-23 07:51:04 51°19.696 2°55.685 12.3186 3.633575 29.754328 -2.871232
2007-04-23 07:52:04 51°19.771 2°56.015 12.387 3.635232 29.727325 -2.871232
2007-04-23 07:53:04 51°19.845 2°56.344 12.4541 3.637925 29.699142 -2.871232
2007-04-23 07:54:05 51°19.92 2°56.676 12.4862 3.640928 29.656189 -2.871232
2007-04-23 07:55:04 51°19.994 2°56.996 12.5437 3.637924 29.625483 -2.871232
2007-04-23 07:56:04 51°20.068 2°57.321 12.4993 3.633676 29.55466 -2.871232
2007-04-23 07:57:05 51°20.143 2°57.654 12.5139 3.62456 29.496226 -2.871232
2007-04-23 07:58:04 51°20.216 2°57.976 12.5149 3.620623 29.443817 -2.871232
2007-04-23 07:59:05 51°20.291 2°58.31 12.5207 3.616272 29.405939 -2.871232
2007-04-23 08:00:04 51°20.364 2°58.632 12.5311 3.614097 29.377204 -2.871232
2007-04-23 08:01:05 51°20.439 2°58.962 12.4699 3.613579 29.380926 -2.871232
2007-04-23 08:02:04 51°20.51 2°59.28 12.3938 3.594727 29.255421 -2.871232
2007-04-23 08:03:04 51°20.58 2°59.604 12.3407 3.57598 29.161971 -2.871232
2007-04-23 08:04:05 51°20.654 2°59.931 12.4281 3.572769 29.146162 -2.871232
2007-04-23 08:05:04 51°20.727 3°0.251 12.4252 3.584576 29.192299 -2.871232
2007-04-23 08:06:05 51°20.802 3°0.581 12.4512 3.589134 29.237686 -2.871232
2007-04-23 08:07:04 51°20.877 3°0.9 12.4669 3.59742 29.269974 -2.871232
2007-04-23 08:08:04 51°20.949 3°1.225 12.4803 3.596695 29.267614 -2.871232
2007-04-23 08:09:04 51°21.021 3°1.549 12.4391 3.592345 29.222746 -2.871232
2007-04-23 08:10:05 51°21.096 3°1.878 12.4509 3.580744 29.171596 -2.871232
2007-04-23 08:11:04 51°21.16 3°2.202 12.4391 3.582712 29.160823 -2.871232
2007-04-23 08:12:04 51°21.213 3°2.535 12.4297 3.579708 29.145518 -2.871232
2007-04-23 08:13:05 51°21.267 3°2.875 12.4207 3.578258 29.135894 -2.871232
2007-04-23 08:14:04 51°21.32 3°3.202 12.4108 3.577533 29.136301 -2.871232
2007-04-23 08:15:05 51°21.376 3°3.54 12.4048 3.576912 29.139038 -2.871232
2007-04-23 08:16:04 51°21.429 3°3.866 12.4059 3.57743 29.145113 -2.871232
2007-04-23 08:17:05 51°21.485 3°4.205 12.4104 3.57774 29.145832 -2.871232
2007-04-23 08:18:04 51°21.537 3°4.53 12.416 3.579398 29.153153 -2.871232
2007-04-23 08:19:04 51°21.591 3°4.859 12.429 3.582091 29.175406 -2.871232
2007-04-23 08:20:05 51°21.645 3°5.193 12.4269 3.583851 29.183655 -2.871232
2007-04-23 08:21:05 51°21.698 3°5.521 12.4213 3.58468 29.197419 -2.871232
2007-04-23 08:22:05 51°21.751 3°5.847 12.4187 3.586337 29.214495 -2.871232
2007-04-23 08:23:04 51°21.802 3°6.166 12.3941 3.587373 29.224558 -2.871232
2007-04-23 08:24:05 51°21.854 3°6.494 12.3674 3.583852 29.230428 -2.871232
2007-04-23 08:25:04 51°21.906 3°6.81 12.3559 3.582713 29.22361 -2.871232
2007-04-23 08:26:05 51°21.958 3°7.138 12.3809 3.584163 29.229045 -2.871232
2007-04-23 08:27:04 51°22.009 3°7.454 12.4222 3.585198 29.233526 -2.871232
2007-04-23 08:28:04 51°22.058 3°7.773 12.3833 3.588409 29.237416 -2.871232
2007-04-23 08:29:05 51°22.133 3°8.087 12.3986 3.587166 29.234558 -2.871232
2007-04-23 08:30:04 51°22.185 3°8.4 12.4056 3.587374 29.242023 -2.871232
2007-04-23 08:31:05 51°22.22 3°8.728 12.3958 3.589756 29.249594 -2.871232
2007-04-23 08:32:04 51°22.227 3°9.047 12.3588 3.589135 29.261452 -2.871232
2007-04-23 08:33:05 51°22.24 3°9.373 12.3097 3.583334 29.232733 -2.871232
2007-04-23 08:34:04 51°22.242 3°9.685 12.2571 3.575049 29.210844 -2.871232
2007-04-23 08:35:05 51°22.233 3°10 12.2464 3.57536 29.240302 -2.871232
2007-04-23 08:36:05 51°22.245 3°10.308 12.2923 3.575567 29.243586 -2.871232
2007-04-23 08:37:05 51°22.281 3°10.617 12.2884 3.578467 29.239037 -2.871232
2007-04-23 08:38:05 51°22.316 3°10.931 12.3633 3.578156 29.227811 -2.871232
2007-04-23 08:39:04 51°22.349 3°11.237 12.3939 3.580227 29.199709 -2.871232
2007-04-23 08:40:05 51°22.385 3°11.553 12.3129 3.584577 29.245387 -2.871232
2007-04-23 08:41:04 51°22.42 3°11.86 12.3498 3.583956 29.262168 -2.871232
2007-04-23 08:42:05 51°22.455 3°12.175 12.3587 3.589135 29.293671 -2.871232
2007-04-23 08:43:04 51°22.493 3°12.477 12.2965 3.590378 29.327396 -2.871232
2007-04-23 08:44:04 51°22.533 3°12.774 12.2653 3.585407 29.31041 -2.871232
2007-04-23 08:45:05 51°22.564 3°12.998 12.2287 3.589964 29.355288 -2.871232
2007-04-23 08:46:05 51°22.587 3°13.116 12.2162 3.587065 29.377586 -2.871232
2007-04-23 08:47:05 51°22.604 3°13.183 12.285 3.588204 29.371713 -2.871232
2007-04-23 08:48:04 51°22.608 3°13.19 12.2964 3.590793 29.355768 -2.871232
2007-04-23 08:49:05 51°22.613 3°13.185 12.2861 3.590897 29.356708 -2.871232
2007-04-23 08:50:04 51°22.615 3°13.176 12.2761 3.589861 29.357868 -2.871232
2007-04-23 08:51:05 51°22.615 3°13.16 12.2762 3.589343 29.359505 -2.871232
2007-04-23 08:52:04 51°22.614 3°13.138 12.2832 3.58955 29.355047 -2.871232
2007-04-23 08:53:05 51°22.613 3°13.11 12.2839 3.589654 29.355283 -2.871232
2007-04-23 08:54:05 51°22.602 3°13.124 12.2937 3.589964 29.353175 -2.871232
2007-04-23 08:55:04 51°22.658 3°13.252 12.3219 3.590068 29.3513 -2.871232
2007-04-23 08:56:05 51°22.784 3°13.451 12.3022 3.593486 29.353462 -2.871232
2007-04-23 08:57:05 51°22.918 3°13.689 12.2769 3.591207 29.362344 -2.871232
2007-04-23 08:58:05 51°23.051 3°13.935 12.264 3.594419 29.401359 -2.871232
2007-04-23 08:59:04 51°23.192 3°14.163 12.2281 3.595351 29.42818 -2.871232
2007-04-23 09:00:05 51°23.343 3°14.389 12.2031 3.599702 29.490368 -2.871232
2007-04-23 09:01:05 51°23.497 3°14.605 12.2024 3.601981 29.532383 -2.871232
2007-04-23 09:02:05 51°23.653 3°14.819 12.196 3.602603 29.534489 -2.871232
2007-04-23 09:03:05 51°23.813 3°15.022 12.1874 3.60136 29.530276 -2.871232
2007-04-23 09:04:04 51°23.995 3°15.177 12.2076 3.596595 29.493289 -2.871232
2007-04-23 09:05:05 51°24.189 3°15.326 12.2891 3.597009 29.46446 -2.871232
2007-04-23 09:06:04 51°24.385 3°15.46 12.2838 3.601048 29.431201 -2.871232
2007-04-23 09:07:05 51°24.59 3°15.601 12.3112 3.604881 29.50416 -2.871232
2007-04-23 09:08:05 51°24.774 3°15.779 12.2927 3.607367 29.506216 -2.871232
2007-04-23 09:09:05 51°24.945 3°15.982 12.237 3.607057 29.54165 -2.871232
2007-04-23 09:10:05 51°25.114 3°16.192 12.2184 3.606125 29.565835 -2.871232
2007-04-23 09:11:05 51°25.256 3°16.436 12.2192 3.6083 29.590616 -2.871232
2007-04-23 09:12:05 51°25.381 3°16.697 12.2425 3.611096 29.565607 -2.871232
2007-04-23 09:13:05 51°25.503 3°16.966 12.1305 3.616069 29.640693 -2.871232
2007-04-23 09:14:05 51°25.626 3°17.235 12.0258 3.624047 29.826565 -2.871232
2007-04-23 09:15:04 51°25.747 3°17.496 11.9785 3.631921 29.952745 -2.871232
2007-04-23 09:16:05 51°25.854 3°17.711 11.9895 3.646632 30.121758 -2.871232
2007-04-23 09:17:04 51°25.884 3°17.825 12.0229 3.654194 30.167791 -2.871232
2007-04-23 09:18:05 51°25.907 3°17.873 12.0284 3.658442 30.193604 -2.871232
2007-04-23 09:19:05 51°25.914 3°17.87 12.0221 3.661135 30.21392 -2.871232
2007-04-23 09:20:04 51°25.917 3°17.859 12.025 3.66186 30.223492 -2.871232
2007-04-23 09:21:05 51°25.919 3°17.843 12.028 3.663207 30.233649 -2.871232
2007-04-23 09:22:05 51°25.92 3°17.821 12.0285 3.663725 30.236937 -2.871232
2007-04-23 09:23:05 51°25.913 3°17.806 12.036 3.664347 30.241906 -2.871232
2007-04-23 09:24:04 51°25.86 3°17.763 12.0385 3.66559 30.24234 -2.871232
2007-04-23 09:25:05 51°25.784 3°17.502 12.0412 3.664657 30.232332 -2.871232
2007-04-23 09:26:05 51°25.756 3°17.132 12.0219 3.661031 30.204938 -2.871232
2007-04-23 09:27:05 51°25.736 3°16.752 11.9884 3.655955 30.179564 -2.871232
2007-04-23 09:28:05 51°25.712 3°16.376 11.9477 3.651812 30.174406 -2.871232
2007-04-23 09:29:05 51°25.658 3°16.013 11.9875 3.641349 30.090768 -2.871232
2007-04-23 09:30:05 51°25.625 3°15.644 12.017 3.630057 29.952322 -2.871232
2007-04-23 09:31:04 51°25.584 3°15.283 12.0511 3.627984 29.912352 -2.871232
2007-04-23 09:32:05 51°25.551 3°14.904 12.0813 3.622804 29.834642 -2.871232
2007-04-23 09:33:05 51°25.517 3°14.525 12.1443 3.620318 29.778832 -2.871232
2007-04-23 09:34:05 51°25.481 3°14.143 12.1867 3.619385 29.718 -2.871232
2007-04-23 09:35:05 51°25.443 3°13.761 12.1626 3.618763 29.703039 -2.871232
2007-04-23 09:36:05 51°25.405 3°13.378 12.1668 3.618142 29.713104 -2.871232
2007-04-23 09:37:05 51°25.365 3°12.995 12.1417 3.621146 29.7405 -2.871232
2007-04-23 09:38:05 51°25.326 3°12.61 12.1476 3.622803 29.771387 -2.871232
2007-04-23 09:39:05 51°25.3 3°12.221 12.1194 3.623529 29.780874 -2.871232
2007-04-23 09:40:04 51°25.263 3°11.842 12.1252 3.622389 29.788417 -2.871232
2007-04-23 09:41:05 51°25.22 3°11.454 12.0818 3.630262 29.849529 -2.871232
2007-04-23 09:42:05 51°25.178 3°11.075 12.0582 3.628191 29.879581 -2.871232
2007-04-23 09:43:05 51°25.13 3°10.702 12.0375 3.621872 29.836202 -2.871232
2007-04-23 09:44:05 51°25.087 3°10.331 12.0219 3.617936 29.81676 -2.871232
2007-04-23 09:45:05 51°25.044 3°9.963 12.0466 3.617625 29.815357 -2.871232
2007-04-23 09:46:05 51°25 3°9.601 12.0658 3.616796 29.784018 -2.871232
2007-04-23 09:47:05 51°24.947 3°9.245 12.1167 3.622597 29.818347 -2.871232
2007-04-23 09:48:05 51°24.885 3°8.889 12.1534 3.624461 29.79728 -2.871232
2007-04-23 09:49:05 51°24.876 3°8.516 12.1907 3.624978 29.769724 -2.871232
2007-04-23 09:50:05 51°24.933 3°8.155 12.2038 3.624771 29.743491 -2.871232
2007-04-23 09:51:05 51°25.088 3°7.914 12.2209 3.625807 29.737911 -2.871232
2007-04-23 09:52:05 51°25.294 3°7.863 12.1884 3.627775 29.753692 -2.871232
2007-04-23 09:53:05 51°25.499 3°7.945 12.1867 3.625185 29.750129 -2.871232
2007-04-23 09:54:05 51°25.708 3°8.013 12.1851 3.623942 29.743094 -2.871232
2007-04-23 09:55:05 51°25.914 3°8.106 12.1916 3.623217 29.736485 -2.871232
2007-04-23 09:56:05 51°26.117 3°8.208 12.1963 3.624253 29.737341 -2.871232
2007-04-23 09:57:05 51°26.298 3°8.296 12.199 3.624978 29.740372 -2.871232
2007-04-23 09:58:04 51°26.397 3°8.36 12.1969 3.624978 29.744664 -2.871232
2007-04-23 09:59:05 51°26.43 3°8.418 12.1935 3.625703 29.74984 -2.871232
2007-04-23 10:00:05 51°26.436 3°8.41 12.1866 3.625496 29.755109 -2.871232
2007-04-23 10:01:05 51°26.443 3°8.403 12.1818 3.625393 29.756312 -2.871232
2007-04-23 10:02:05 51°26.451 3°8.395 12.1913 3.625393 29.756312 -2.871232
2007-04-23 10:03:05 51°26.46 3°8.386 12.193 3.626428 29.758595 -2.871232
2007-04-23 10:04:05 51°26.468 3°8.377 12.204 3.62705 29.762111 -2.871232
2007-04-23 10:05:05 51°26.476 3°8.366 12.1988 3.627257 29.762568 -2.871232
2007-04-23 10:06:05 51°26.484 3°8.355 12.2094 3.627568 29.762536 -2.871232
2007-04-23 10:07:05 51°26.507 3°8.322 12.2159 3.628293 29.763418 -2.871232
2007-04-23 10:08:05 51°26.578 3°8.185 12.2147 3.6285 29.763874 -2.871232
2007-04-23 10:09:05 51°26.674 3°7.904 12.2261 3.628189 29.758897 -2.871232
2007-04-23 10:10:05 51°26.783 3°7.592 12.2285 3.627464 29.741569 -2.871232
2007-04-23 10:11:05 51°26.897 3°7.281 12.2377 3.626428 29.734995 -2.871232
2007-04-23 10:12:05 51°27.01 3°6.969 12.2229 3.628085 29.740082 -2.871232
2007-04-23 10:13:05 51°27.123 3°6.658 12.2116 3.627775 29.753692 -2.871232
2007-04-23 10:14:05 51°27.238 3°6.351 12.2141 3.6285 29.766021 -2.871232
2007-04-23 10:15:05 51°27.354 3°6.048 12.2348 3.631401 29.786002 -2.871232
2007-04-23 10:16:05 51°27.47 3°5.749 12.3112 3.635958 29.79816 -2.871232
2007-04-23 10:17:05 51°27.582 3°5.45 12.3067 3.638651 29.77692 -2.871232
2007-04-23 10:18:05 51°27.693 3°5.152 12.2874 3.639583 29.772547 -2.871232
2007-04-23 10:19:05 51°27.807 3°4.855 12.1573 3.636166 29.820095 -2.871232
2007-04-23 10:20:05 51°27.919 3°4.555 12.1663 3.63513 29.855858 -2.871232
2007-04-23 10:21:05 51°28.025 3°4.251 12.1623 3.637099 29.877408 -2.871232
2007-04-23 10:22:05 51°28.125 3°3.942 12.1816 3.638963 29.881474 -2.871232
2007-04-23 10:23:05 51°28.224 3°3.633 12.1438 3.642382 29.930659 -2.871232
2007-04-23 10:24:05 51°28.269 3°3.459 12.1469 3.642279 29.948461 -2.871232
2007-04-23 10:25:05 51°28.274 3°3.435 12.1312 3.642589 29.941922 -2.871232
2007-04-23 10:26:05 51°28.273 3°3.431 12.0792 3.641243 29.970773 -2.871232
2007-04-23 10:27:05 51°28.274 3°3.428 12.0729 3.640001 29.979655 -2.871232
2007-04-23 10:28:05 51°28.275 3°3.429 12.0536 3.639483 29.982154 -2.871232
2007-04-23 10:29:05 51°28.276 3°3.429 12.0461 3.638861 29.993122 -2.871232
2007-04-23 10:30:05 51°28.301 3°3.406 12.0736 3.638758 29.992899 -2.871232
2007-04-23 10:31:05 51°28.308 3°3.242 12.1441 3.640933 29.972269 -2.871232
2007-04-23 10:32:05 51°28.29 3°2.906 12.149 3.645801 29.974854 -2.871232
2007-04-23 10:33:05 51°28.244 3°2.554 12.1291 3.647044 29.989097 -2.871232
2007-04-23 10:34:05 51°28.188 3°2.202 12.1216 3.647666 30.004894 -2.871232
2007-04-23 10:35:05 51°28.132 3°1.848 12.1088 3.646216 30.003212 -2.871232
2007-04-23 10:36:05 51°28.077 3°1.492 12.1006 3.646838 30.021922 -2.871232
2007-04-23 10:37:05 51°28.019 3°1.134 12.07 3.651914 30.084311 -2.871232
2007-04-23 10:38:05 51°27.96 3°0.774 11.9888 3.65637 30.173148 -2.871232
2007-04-23 10:39:05 51°27.901 3°0.413 11.9646 3.651708 30.153741 -2.871232
2007-04-23 10:40:05 51°27.842 3°0.054 11.9396 3.645078 30.126463 -2.871232
2007-04-23 10:41:05 51°27.783 2°59.694 11.9645 3.637723 30.058217 -2.871232
2007-04-23 10:42:05 51°27.723 2°59.336 11.9085 3.631404 29.997321 -2.871232
2007-04-23 10:43:05 51°27.666 2°58.975 11.8701 3.624464 29.996137 -2.871232
2007-04-23 10:44:05 51°27.607 2°58.614 11.8709 3.621667 29.998831 -2.871232
2007-04-23 10:45:05 51°27.549 2°58.254 11.9332 3.621045 29.959628 -2.871232
2007-04-23 10:46:05 51°27.492 2°57.893 11.9059 3.623117 29.941607 -2.871232
2007-04-23 10:47:05 51°27.436 2°57.531 11.917 3.621252 29.955716 -2.871232
2007-04-23 10:48:05 51°27.38 2°57.169 11.9306 3.623842 29.964967 -2.871232
2007-04-23 10:49:05 51°27.323 2°56.808 11.945 3.627985 29.96596 -2.871232
2007-04-23 10:50:05 51°27.265 2°56.446 11.7408 3.644872 30.219007 -2.871232
2007-04-23 10:51:05 51°27.206 2°56.084 11.6436 3.646843 30.350763 -2.871232
2007-04-23 10:52:05 51°27.149 2°55.722 11.6184 3.64415 30.391879 -2.871232
2007-04-23 10:53:05 51°27.093 2°55.363 11.6783 3.645497 30.405845 -2.871232
2007-04-23 10:54:05 51°27.034 2°55.001 11.6069 3.658239 30.491132 -2.871232
2007-04-23 10:55:05 51°26.975 2°54.636 11.6033 3.657515 30.546376 -2.871232
2007-04-23 10:56:05 51°26.914 2°54.269 11.5243 3.660312 30.580573 -2.871232
2007-04-23 10:57:05 51°26.851 2°53.897 11.4678 3.656376 30.616035 -2.871232
2007-04-23 10:58:05 51°26.792 2°53.529 11.5056 3.657516 30.626638 -2.871232
2007-04-23 10:59:05 51°26.736 2°53.164 11.5525 3.660934 30.648666 -2.871232
2007-04-23 11:00:05 51°26.688 2°52.799 11.5888 3.669947 30.682817 -2.871232
2007-04-23 11:01:05 51°26.636 2°52.434 11.538 3.672537 30.710647 -2.871232
2007-04-23 11:02:05 51°26.586 2°52.067 11.4356 3.683934 30.875628 -2.871232
2007-04-23 11:03:05 51°26.531 2°51.703 11.3835 3.678859 30.901975 -2.871232
2007-04-23 11:04:05 51°26.474 2°51.34 11.3616 3.676165 30.900418 -2.871232
2007-04-23 11:05:05 51°26.418 2°50.978 11.4244 3.676062 30.895642 -2.871232
2007-04-23 11:06:05 51°26.361 2°50.613 11.3913 3.686733 30.967115 -2.871232
2007-04-23 11:07:05 51°26.301 2°50.247 11.3088 3.690774 31.069108 -2.871232
2007-04-23 11:08:05 51°26.238 2°49.882 11.2183 3.701343 31.198057 -2.871232
2007-04-23 11:09:05 51°26.175 2°49.515 11.1862 3.70984 31.378478 -2.871232
2007-04-23 11:10:05 51°26.112 2°49.151 11.2276 3.713777 31.400725 -2.871232
2007-04-23 11:11:05 51°26.059 2°48.804 11.2437 3.717507 31.41323 -2.871232
2007-04-23 11:12:05 51°26.019 2°48.6 11.258 3.719786 31.422983 -2.871232
2007-04-23 11:13:05 51°26.002 2°48.548 11.268 3.721548 31.430198 -2.871232
2007-04-23 11:14:05 51°25.979 2°48.547 11.2516 3.722066 31.438953 -2.871232
2007-04-23 11:15:05 51°25.959 2°48.544 11.2527 3.720823 31.436608 -2.871232
2007-04-23 11:16:05 51°25.94 2°48.54 11.2664 3.721444 31.434669 -2.871232
2007-04-23 11:17:05 51°25.923 2°48.535 11.2745 3.721755 31.427479 -2.871232
2007-04-23 11:18:05 51°25.918 2°48.524 11.282 3.72248 31.426517 -2.871232
2007-04-23 11:19:05 51°25.975 2°48.359 11.2803 3.722584 31.425158 -2.871232
2007-04-23 11:20:05 51°25.947 2°48.016 11.2121 3.722688 31.444015 -2.871232
2007-04-23 11:21:05 51°25.828 2°47.696 11.1869 3.720409 31.469324 -2.871232
2007-04-23 11:22:05 51°25.712 2°47.368 11.2031 3.718026 31.467963 -2.871232
2007-04-23 11:23:05 51°25.597 2°47.042 11.2043 3.717819 31.456651 -2.871232
2007-04-23 11:24:05 51°25.483 2°46.714 11.2426 3.718958 31.441653 -2.871232
2007-04-23 11:25:05 51°25.367 2°46.384 11.2514 3.71989 31.434848 -2.871232
2007-04-23 11:26:05 51°25.251 2°46.058 11.2924 3.720512 31.419688 -2.871232
2007-04-23 11:27:05 51°25.137 2°45.732 11.3366 3.720926 31.387086 -2.871232
2007-04-23 11:28:05 51°25.012 2°45.417 11.3721 3.720821 31.346613 -2.871232
2007-04-23 11:29:05 51°24.89 2°45.099 11.4054 3.720199 31.30217 -2.871232
2007-04-23 11:30:05 51°24.777 2°44.771 11.3854 3.718956 31.279744 -2.871232
2007-04-23 11:31:05 51°24.664 2°44.441 11.3491 3.714812 31.281825 -2.871232
2007-04-23 11:32:05 51°24.552 2°44.111 11.3642 3.714501 31.280457 -2.871232
2007-04-23 11:33:05 51°24.44 2°43.778 11.4156 3.716573 31.273633 -2.871232
2007-04-23 11:34:05 51°24.328 2°43.445 11.4393 3.717401 31.255968 -2.871232
2007-04-23 11:35:05 51°24.218 2°43.11 11.4342 3.715847 31.22452 -2.871232
2007-04-23 11:36:05 51°24.105 2°42.773 11.4705 3.712946 31.19511 -2.871232
2007-04-23 11:37:05 51°23.991 2°42.436 11.2441 3.724448 31.3744 -2.871232
2007-04-23 11:38:05 51°23.879 2°42.097 11.2049 3.722481 31.47478 -2.871232
2007-04-23 11:39:05 51°23.767 2°41.759 11.1898 3.721445 31.49234 -2.871232
2007-04-23 11:40:05 51°23.654 2°41.422 11.2085 3.722792 31.490964 -2.871232
2007-04-23 11:41:05 51°23.541 2°41.085 11.2074 3.723828 31.506178 -2.871232
2007-04-23 11:42:05 51°23.429 2°40.749 11.1346 3.722792 31.523777 -2.871232
2007-04-23 11:43:05 51°23.314 2°40.418 11.2698 3.722171 31.526526 -2.871232
2007-04-23 11:44:05 51°23.198 2°40.086 11.3585 3.733359 31.479647 -2.871232
2007-04-23 11:45:05 51°23.083 2°39.753 11.3454 3.733048 31.458091 -2.871232
2007-04-23 11:46:05 51°22.969 2°39.419 11.3601 3.731286 31.4346 -2.871232
2007-04-23 11:47:05 51°22.854 2°39.084 11.3474 3.729836 31.424884 -2.871232
2007-04-23 11:48:05 51°22.74 2°38.748 11.3271 3.728385 31.416717 -2.871232
2007-04-23 11:49:05 51°22.627 2°38.409 11.3162 3.724863 31.415487 -2.871232
2007-04-23 11:50:05 51°22.513 2°38.073 11.3226 3.724138 31.417997 -2.871232
2007-04-23 11:51:05 51°22.399 2°37.737 11.456 3.731183 31.426652 -2.871232
2007-04-23 11:52:05 51°22.287 2°37.396 11.356 3.73512 31.423244 -2.871232
2007-04-23 11:53:05 51°22.175 2°37.055 11.3893 3.731597 31.42511 -2.871232
2007-04-23 11:54:05 51°22.066 2°36.714 11.4623 3.730457 31.383481 -2.871232
2007-04-23 11:55:05 51°21.957 2°36.376 11.4852 3.727969 31.320099 -2.871232
2007-04-23 11:56:05 51°21.847 2°36.039 11.5542 3.726622 31.261378 -2.871232
2007-04-23 11:57:05 51°21.739 2°35.7 11.525 3.725896 31.210157 -2.871232
2007-04-23 11:58:05 51°21.63 2°35.362 11.5496 3.721959 31.201026 -2.871232
2007-04-23 11:59:05 51°21.522 2°35.021 11.5339 3.720093 31.15764 -2.871232
2007-04-23 12:00:05 51°21.415 2°34.678 11.5635 3.715224 31.151249 -2.871232
2007-04-23 12:01:05 51°21.308 2°34.336 11.5727 3.715431 31.112693 -2.871232
2007-04-23 12:02:05 51°21.199 2°33.993 11.4998 3.713877 31.106612 -2.871232
2007-04-23 12:03:05 51°21.091 2°33.65 11.6265 3.712737 31.092185 -2.871232
2007-04-23 12:04:05 51°20.981 2°33.306 11.6367 3.716673 31.081593 -2.871232
2007-04-23 12:05:05 51°20.872 2°32.961 11.6615 3.718331 31.071904 -2.871232
2007-04-23 12:06:05 51°20.764 2°32.616 11.7388 3.720195 31.053532 -2.871232
2007-04-23 12:07:05 51°20.656 2°32.271 11.7774 3.724961 31.031815 -2.871232
2007-04-23 12:08:05 51°20.546 2°31.927 11.7591 3.726204 31.036524 -2.871232
2007-04-23 12:09:05 51°20.438 2°31.582 11.77 3.725272 31.035451 -2.871232
2007-04-23 12:10:05 51°20.331 2°31.234 11.7946 3.726826 31.039256 -2.871232
2007-04-23 12:11:05 51°20.233 2°30.909 11.7671 3.732317 31.06514 -2.871232
2007-04-23 12:12:05 51°20.153 2°30.63 11.7116 3.734701 31.135724 -2.871232
2007-04-23 12:13:05 51°20.099 2°30.301 11.4984 3.734909 31.17719 -2.871232
2007-04-23 12:14:05 51°20.052 2°30.017 11.3475 3.728695 31.350011 -2.871232
2007-04-23 12:15:05 51°20.032 2°29.886 11.3278 3.723619 31.37902 -2.871232
2007-04-23 12:16:05 51°20.028 2°29.853 11.3206 3.723205 31.386756 -2.871232
2007-04-23 12:17:05 51°20.025 2°29.825 11.3168 3.722687 31.394302 -2.871232
2007-04-23 12:18:05 51°20.022 2°29.798 11.3159 3.722376 31.394489 -2.871232
2007-04-23 12:19:05 51°20.019 2°29.774 11.3142 3.722169 31.393321 -2.871232
2007-04-23 12:20:05 51°20.038 2°29.71 11.3127 3.722273 31.397395 -2.871232
2007-04-23 12:21:05 51°20 2°29.596 11.3088 3.721754 31.394086 -2.871232
2007-04-23 12:22:05 51°19.924 2°29.673 11.3112 3.72248 31.404771 -2.871232
2007-04-23 12:23:05 51°19.8 2°29.901 11.3326 3.723309 31.405564 -2.871232
2007-04-23 12:24:05 51°19.68 2°30.158 11.5481 3.724136 31.324348 -2.871232
2007-04-23 12:25:05 51°19.57 2°30.434 11.7215 3.725481 31.176482 -2.871232
2007-04-23 12:26:05 51°19.446 2°30.704 11.8037 3.726929 31.047026 -2.871232
2007-04-23 12:27:05 51°19.32 2°30.977 11.7902 3.727965 31.01731 -2.871232
2007-04-23 12:28:05 51°19.195 2°31.251 11.7314 3.722992 31.018116 -2.871232
2007-04-23 12:29:05 51°19.071 2°31.524 11.8392 3.724235 31.012244 -2.871232
2007-04-23 12:30:05 51°18.947 2°31.799 11.7573 3.732006 31.061506 -2.871232
2007-04-23 12:31:05 51°18.815 2°32.068 11.7049 3.728588 31.098013 -2.871232
2007-04-23 12:32:05 51°18.68 2°32.336 11.6671 3.728381 31.126479 -2.871232
2007-04-23 12:33:05 51°18.544 2°32.601 11.6952 3.725687 31.085521 -2.871232
2007-04-23 12:34:05 51°18.409 2°32.866 11.6561 3.711492 30.976547 -2.871232
2007-04-23 12:35:05 51°18.273 2°33.133 11.6387 3.707866 30.9709 -2.871232
2007-04-23 12:36:05 51°18.136 2°33.392 11.7039 3.708177 30.967727 -2.871232
2007-04-23 12:37:05 51°17.999 2°33.652 11.7003 3.708591 30.933755 -2.871232
2007-04-23 12:38:05 51°17.865 2°33.915 11.7078 3.710456 30.963906 -2.871232
2007-04-23 12:39:05 51°17.746 2°34.193 11.6684 3.712632 30.9735 -2.871232
2007-04-23 12:40:05 51°17.633 2°34.485 11.6577 3.715222 31.027085 -2.871232
2007-04-23 12:41:05 51°17.517 2°34.771 11.672 3.72289 31.095253 -2.871232
2007-04-23 12:42:05 51°17.403 2°35.057 11.6735 3.72061 31.068006 -2.871232
2007-04-23 12:43:05 51°17.285 2°35.342 11.6672 3.717087 31.038333 -2.871232
2007-04-23 12:44:05 51°17.165 2°35.629 11.686 3.714808 31.008074 -2.871232
2007-04-23 12:45:05 51°17.056 2°35.927 11.855 3.71087 30.935252 -2.871232
2007-04-23 12:46:05 51°16.937 2°36.212 11.8691 3.692011 30.614888 -2.871232
2007-04-23 12:47:05 51°16.816 2°36.453 11.8486 3.684655 30.593154 -2.871232
2007-04-23 12:48:05 51°16.723 2°36.621 11.8052 3.680822 30.556297 -2.871232
2007-04-23 12:49:05 51°16.668 2°36.728 11.8002 3.678232 30.560641 -2.871232
2007-04-23 12:50:05 51°16.609 2°36.788 11.7714 3.676678 30.567124 -2.871232
2007-04-23 12:51:05 51°16.583 2°36.775 11.7803 3.676368 30.56872 -2.871232
2007-04-23 12:52:05 51°16.579 2°36.751 11.7414 3.676471 30.575636 -2.871232
2007-04-23 12:53:05 51°16.573 2°36.728 11.7359 3.674607 30.582993 -2.871232
2007-04-23 12:54:05 51°16.566 2°36.705 11.7355 3.674089 30.581185 -2.871232
2007-04-23 12:55:05 51°16.56 2°36.683 11.7326 3.674193 30.582143 -2.871232
2007-04-23 12:56:05 51°16.55 2°36.671 11.736 3.674296 30.58161 -2.871232
2007-04-23 12:57:05 51°16.431 2°36.791 11.7756 3.674296 30.577135 -2.871232
2007-04-23 12:58:05 51°16.229 2°36.926 11.7813 3.676782 30.576274 -2.871232
2007-04-23 12:59:05 51°16.002 2°36.968 11.7776 3.677818 30.582868 -2.871232
2007-04-23 13:00:05 51°15.775 2°36.982 11.7903 3.681962 30.61222 -2.871232
2007-04-23 13:01:05 51°15.551 2°36.998 11.8238 3.687246 30.645376 -2.871232
2007-04-23 13:02:05 51°15.32 2°37.017 11.8289 3.692944 30.680844 -2.871232
2007-04-23 13:03:05 51°15.093 2°37.029 11.8348 3.697295 30.714307 -2.871232
2007-04-23 13:04:05 51°14.864 2°37.045 11.8472 3.701129 30.743727 -2.871232
2007-04-23 13:05:05 51°14.636 2°37.06 11.8625 3.706206 30.778635 -2.871232
2007-04-23 13:06:05 51°14.404 2°37.074 11.8769 3.709728 30.799181 -2.871232
2007-04-23 13:07:05 51°14.169 2°37.088 11.9078 3.713561 30.809115 -2.871232
2007-04-23 13:08:05 51°13.934 2°37.108 12.0189 3.717395 30.81605 -2.871232
2007-04-23 13:09:05 51°13.704 2°37.141 12.2829 3.724335 30.735446 -2.871232
2007-04-23 13:10:05 51°13.479 2°37.173 12.0602 3.739876 30.772655 -2.871232
2007-04-23 13:11:05 51°13.258 2°37.206 12.1293 3.736458 30.892187 -2.871232
2007-04-23 13:12:05 51°13.03 2°37.236 12.1354 3.730655 30.763751 -2.871232
2007-04-23 13:13:05 51°12.8 2°37.269 12.0978 3.724749 30.720715 -2.871232
2007-04-23 13:14:05 51°12.568 2°37.304 12.0912 3.72133 30.713807 -2.871232
2007-04-23 13:15:05 51°12.341 2°37.363 12.1226 3.716253 30.667225 -2.871232
2007-04-23 13:16:05 51°12.111 2°37.418 12.1879 3.712004 30.585443 -2.871232
2007-04-23 13:17:05 51°11.882 2°37.346 12.1444 3.715216 30.584645 -2.871232
2007-04-23 13:18:05 51°11.657 2°37.233 12.1375 3.714284 30.612224 -2.871232
2007-04-23 13:19:05 51°11.431 2°37.124 12.2374 3.72309 30.65008 -2.871232
2007-04-23 13:20:05 51°11.203 2°37.015 12.3996 3.735108 30.681838 -2.871232
2007-04-23 13:21:05 51°10.974 2°36.908 12.4702 3.757903 30.752849 -2.871232
2007-04-23 13:22:05 51°10.748 2°36.805 12.4964 3.776969 30.903552 -2.871232
2007-04-23 13:23:05 51°10.523 2°36.75 12.4909 3.804846 31.135106 -2.871232
2007-04-23 13:24:05 51°10.3 2°36.828 12.4747 3.819666 31.282773 -2.871232
2007-04-23 13:25:05 51°10.143 2°37.053 12.491 3.807126 31.159584 -2.871232
2007-04-23 13:26:05 51°10.11 2°37.375 12.4355 3.773446 30.872226 -2.871232
2007-04-23 13:27:05 51°10.167 2°37.685 12.4159 3.761737 30.805409 -2.871232
2007-04-23 13:28:05 51°10.231 2°37.994 12.3953 3.745572 30.679505 -2.871232
2007-04-23 13:29:05 51°10.299 2°38.298 12.5226 3.732205 30.526398 -2.871232
2007-04-23 13:30:05 51°10.369 2°38.603 12.6199 3.733861 30.439657 -2.871232
2007-04-23 13:31:05 51°10.435 2°38.912 12.6263 3.736969 30.411358 -2.871232
2007-04-23 13:32:05 51°10.499 2°39.224 12.6475 3.734171 30.384604 -2.871232
2007-04-23 13:33:05 51°10.566 2°39.536 12.7319 3.73614 30.365619 -2.871232
2007-04-23 13:34:05 51°10.637 2°39.849 12.7298 3.744635 30.383287 -2.871232
2007-04-23 13:35:05 51°10.705 2°40.165 12.7218 3.743288 30.378329 -2.871232
2007-04-23 13:36:05 51°10.772 2°40.483 12.693 3.738108 30.353159 -2.871232
2007-04-23 13:37:05 51°10.838 2°40.804 12.6765 3.732927 30.317894 -2.871232
2007-04-23 13:38:05 51°10.905 2°41.125 12.7083 3.728575 30.281479 -2.871232
2007-04-23 13:39:05 51°10.973 2°41.442 12.7378 3.727539 30.245588 -2.871232
2007-04-23 13:40:05 51°11.026 2°41.703 12.8756 3.72702 30.176575 -2.871232
2007-04-23 13:41:05 51°11.073 2°41.916 12.9373 3.728987 30.102515 -2.871232
2007-04-23 13:42:05 51°11.106 2°42.058 12.8232 3.728572 30.082495 -2.871232
2007-04-23 13:43:05 51°11.11 2°42.106 12.7585 3.718523 30.101548 -2.871232
2007-04-23 13:44:05 51°11.115 2°42.128 12.8113 3.713965 30.09397 -2.871232
2007-04-23 13:45:05 51°11.117 2°42.144 12.9406 3.71645 30.019756 -2.871232
2007-04-23 13:46:05 51°11.123 2°42.155 12.9777 3.719661 29.986364 -2.871232
2007-04-23 13:47:05 51°11.141 2°42.193 13.0049 3.719764 29.955573 -2.871232
2007-04-23 13:48:05 51°11.148 2°42.411 12.9626 3.720075 29.956947 -2.871232
2007-04-23 13:49:05 51°11.161 2°42.742 12.9237 3.716656 29.95874 -2.871232
2007-04-23 13:50:05 51°11.183 2°43.074 12.9095 3.709093 29.917747 -2.871232
2007-04-23 13:51:05 51°11.217 2°43.404 12.8795 3.704638 29.891193 -2.871232
2007-04-23 13:52:05 51°11.339 2°43.648 12.9814 3.698525 29.846239 -2.871232
2007-04-23 13:53:05 51°11.532 2°43.79 12.9702 3.695208 29.722648 -2.871232
2007-04-23 13:54:05 51°11.725 2°43.945 12.8308 3.694069 29.756502 -2.871232
2007-04-23 13:55:05 51°11.915 2°44.103 12.7291 3.691792 29.865418 -2.871232
2007-04-23 13:56:05 51°12.093 2°44.273 12.6832 3.683919 29.851817 -2.871232
2007-04-23 13:57:05 51°12.253 2°44.496 12.6649 3.677496 29.820131 -2.871232
2007-04-23 13:58:05 51°12.373 2°44.787 12.6647 3.671902 29.788809 -2.871232
2007-04-23 13:59:05 51°12.49 2°45.078 12.6872 3.668172 29.744615 -2.871232
2007-04-23 14:00:05 51°12.599 2°45.376 12.6771 3.664856 29.703485 -2.871232
2007-04-23 14:01:05 51°12.714 2°45.667 12.6715 3.659158 29.663444 -2.871232
2007-04-23 14:02:05 51°12.832 2°45.951 12.6794 3.652217 29.600254 -2.871232
2007-04-23 14:03:05 51°12.95 2°46.236 12.6893 3.647452 29.547555 -2.871232
2007-04-23 14:04:05 51°13.066 2°46.519 12.6876 3.643204 29.509347 -2.871232
2007-04-23 14:05:05 51°13.182 2°46.802 12.7137 3.638646 29.462066 -2.871232
2007-04-23 14:06:05 51°13.299 2°47.084 12.7608 3.635434 29.403234 -2.871232
2007-04-23 14:07:05 51°13.418 2°47.364 12.7783 3.632533 29.345236 -2.871232
2007-04-23 14:08:05 51°13.536 2°47.646 12.7944 3.629011 29.310874 -2.871232
2007-04-23 14:09:05 51°13.654 2°47.928 12.8869 3.628907 29.288482 -2.871232
2007-04-23 14:10:05 51°13.771 2°48.21 12.9321 3.633879 29.285314 -2.871232
2007-04-23 14:11:05 51°13.889 2°48.494 12.8919 3.642994 29.292308 -2.871232
2007-04-23 14:12:05 51°14.007 2°48.78 12.7543 3.639473 29.365844 -2.871232
2007-04-23 14:13:05 51°14.127 2°49.062 12.709 3.641235 29.430957 -2.871232
2007-04-23 14:14:05 51°14.252 2°49.341 12.7222 3.646415 29.517945 -2.871232
2007-04-23 14:15:05 51°14.378 2°49.62 12.6312 3.64683 29.543364 -2.871232
2007-04-23 14:16:05 51°14.512 2°49.891 12.6963 3.644137 29.56118 -2.871232
2007-04-23 14:17:05 51°14.658 2°50.146 12.7551 3.652217 29.563802 -2.871232
2007-04-23 14:18:05 51°14.805 2°50.401 12.8901 3.656256 29.540668 -2.871232
2007-04-23 14:19:05 51°14.945 2°50.665 12.9197 3.662885 29.495636 -2.871232
2007-04-23 14:20:05 51°15.068 2°50.947 12.8107 3.656566 29.471733 -2.871232
2007-04-23 14:21:05 51°15.184 2°51.237 12.8321 3.64341 29.390709 -2.871232
2007-04-23 14:22:05 51°15.298 2°51.528 12.811 3.630357 29.279347 -2.871232
2007-04-23 14:23:05 51°15.409 2°51.822 12.8496 3.622588 29.212546 -2.871232
2007-04-23 14:24:05 51°15.511 2°52.124 12.8869 3.622691 29.203823 -2.871232
2007-04-23 14:25:05 51°15.611 2°52.424 12.9003 3.623208 29.162359 -2.871232
2007-04-23 14:26:05 51°15.714 2°52.722 12.9288 3.61979 29.122899 -2.871232
2007-04-23 14:27:05 51°15.819 2°53.021 12.9544 3.62269 29.110422 -2.871232
2007-04-23 14:28:05 51°15.922 2°53.321 12.8565 3.619997 29.122692 -2.871232
2007-04-23 14:29:05 51°16.024 2°53.625 12.8009 3.614507 29.127162 -2.871232
2007-04-23 14:30:05 51°16.128 2°53.925 12.7711 3.608603 29.112126 -2.871232
2007-04-23 14:31:05 51°16.213 2°54.176 12.8008 3.605703 29.090279 -2.871232
2007-04-23 14:32:05 51°16.272 2°54.315 12.8367 3.605807 29.081587 -2.871232
2007-04-23 14:33:05 51°16.277 2°54.339 12.8206 3.608914 29.073701 -2.871232
2007-04-23 14:34:05 51°16.276 2°54.354 12.7829 3.606014 29.080694 -2.871232
2007-04-23 14:35:05 51°16.273 2°54.37 12.7571 3.603424 29.080178 -2.871232
2007-04-23 14:36:05 51°16.27 2°54.386 12.782 3.60156 29.083413 -2.871232
2007-04-23 14:37:05 51°16.266 2°54.403 12.8224 3.604564 29.075266 -2.871232
2007-04-23 14:38:05 51°16.261 2°54.422 12.8534 3.607567 29.073318 -2.871232
2007-04-23 14:39:05 51°16.192 2°54.471 12.9138 3.609535 29.068289 -2.871232
2007-04-23 14:40:05 51°15.995 2°54.51 12.9133 3.613885 29.061275 -2.871232
2007-04-23 14:41:05 51°15.777 2°54.504 12.8827 3.615749 29.053985 -2.871232
2007-04-23 14:42:05 51°15.559 2°54.483 12.8047 3.608706 29.071849 -2.871232
2007-04-23 14:43:05 51°15.342 2°54.468 12.9768 3.607152 29.038777 -2.871232
2007-04-23 14:44:05 51°15.128 2°54.464 12.949 3.616991 29.015944 -2.871232
2007-04-23 14:45:05 51°14.913 2°54.48 17.3941 3.574175 26.509166 -2.871232
2007-04-23 14:46:05 51°14.709 2°54.584 13.4593 3.608447 26.055695 -2.871232
2007-04-23 14:47:05 51°14.532 2°54.789 13.6094 3.5308 27.396736 -2.871232
2007-04-23 14:48:05 51°14.377 2°55.04 13.4032 3.474052 27.185649 -2.871232
2007-04-23 14:49:05 51°14.248 2°55.286 13.6839 3.496318 27.420932 -2.871232
2007-04-23 14:50:05 51°14.148 2°55.383 13.8262 3.486582 27.252422 -2.871232
2007-04-23 14:51:05 51°14.072 2°55.44 13.6275 3.504703 27.283844 -2.871232
2007-04-23 14:52:05 51°13.983 2°55.508 13.7124 3.331788 25.841627 -2.871232
2007-04-23 14:53:05 51°13.886 2°55.582 13.7279 3.465973 27.005369 -2.871232
2007-04-23 14:54:05 51°13.807 2°55.647 13.6996 3.329407 25.801183 -2.871232
2007-04-23 14:55:05 51°13.761 2°55.713 13.6624 2.932681 22.424687 -2.871232
2007-04-23 14:56:05 51°13.721 2°55.773 13.6297 3.358084 26.079252 -2.871232
2007-04-23 14:57:05 51°13.689 2°55.831 13.6347 3.364813 26.126346 -2.871232
2007-04-23 14:58:05 51°13.663 2°55.886 13.6502 3.269472 25.296178 -2.871232
2007-04-23 14:59:05 51°13.629 2°55.955 13.6325 3.018433 23.167771 -2.871232
2007-04-23 15:00:05 51°13.608 2°56.042 13.6339 3.29121 25.500779 -2.871232
2007-04-23 15:01:05 51°13.602 2°56.098 13.7 3.386038 26.32741 -2.871232